createdAt,value
2019-03-08T00:00:13.557Z,935.40
2019-03-08T00:01:13.440Z,935.37
2019-03-08T00:02:13.335Z,935.44
2019-03-08T00:03:13.239Z,935.44
2019-03-08T00:04:13.137Z,935.40
2019-03-08T00:05:13.159Z,935.44
2019-03-08T00:06:12.937Z,935.44
2019-03-08T00:07:12.840Z,935.45
2019-03-08T00:08:12.741Z,935.43
2019-03-08T00:09:12.668Z,935.37
2019-03-08T00:10:12.559Z,935.42
2019-03-08T00:11:12.440Z,935.37
2019-03-08T00:12:12.444Z,935.40
2019-03-08T00:13:12.245Z,935.44
2019-03-08T00:14:12.141Z,935.51
2019-03-08T00:15:12.056Z,935.44
2019-03-08T00:16:11.939Z,935.47
2019-03-08T00:17:11.844Z,935.46
2019-03-08T00:18:11.745Z,935.45
2019-03-08T00:19:11.745Z,935.46
2019-03-08T00:20:11.557Z,935.48
2019-03-08T00:21:11.441Z,935.53
2019-03-08T00:22:11.343Z,935.55
2019-03-08T00:23:11.242Z,935.50
2019-03-08T00:24:11.142Z,935.54
2019-03-08T00:25:11.059Z,935.50
2019-03-08T00:26:11.042Z,935.53
2019-03-08T00:27:10.846Z,935.63
2019-03-08T00:28:10.748Z,935.60
2019-03-08T00:29:10.647Z,935.65
2019-03-08T00:30:10.558Z,935.64
2019-03-08T00:31:10.441Z,935.63
2019-03-08T00:32:10.343Z,935.67
2019-03-08T00:33:10.348Z,935.61
2019-03-08T00:34:10.143Z,935.71
2019-03-08T00:35:10.061Z,935.67
2019-03-08T00:36:09.946Z,935.70
2019-03-08T00:37:09.845Z,935.70
2019-03-08T00:38:09.746Z,935.70
2019-03-08T00:39:09.659Z,935.68
2019-03-08T00:40:09.663Z,935.66
2019-03-08T00:41:09.446Z,935.62
2019-03-08T00:42:09.348Z,935.70
2019-03-08T00:43:09.245Z,935.67
2019-03-08T00:44:09.148Z,935.70
2019-03-08T00:45:09.067Z,935.74
2019-03-08T00:46:08.947Z,935.67
2019-03-08T00:47:08.957Z,935.70
2019-03-08T00:48:08.752Z,935.74
2019-03-08T00:49:08.649Z,935.72
2019-03-08T00:50:08.567Z,935.70
2019-03-08T00:51:08.459Z,935.69
2019-03-08T00:52:08.353Z,935.69
2019-03-08T00:53:08.378Z,935.73
2019-03-08T00:54:08.160Z,935.73
2019-03-08T00:55:08.070Z,935.74
2019-03-08T00:56:07.955Z,935.75
2019-03-08T00:57:07.853Z,935.73
2019-03-08T00:58:07.754Z,935.68
2019-03-08T00:59:07.653Z,935.69
2019-03-08T01:00:07.570Z,935.68
2019-03-08T01:01:07.557Z,935.70
2019-03-08T01:02:07.356Z,935.67
2019-03-08T01:03:07.258Z,935.68
2019-03-08T01:04:07.155Z,935.67
2019-03-08T01:05:07.058Z,935.61
2019-03-08T01:06:06.986Z,935.62
2019-03-08T01:07:07.006Z,935.59
2019-03-08T01:08:06.758Z,935.65
2019-03-08T01:09:06.660Z,935.61
2019-03-08T01:10:06.577Z,935.57
2019-03-08T01:11:06.470Z,935.60
2019-03-08T01:12:06.359Z,935.58
2019-03-08T01:13:06.259Z,935.59
2019-03-08T01:14:06.158Z,935.62
2019-03-08T01:15:06.063Z,935.62
2019-03-08T01:16:05.977Z,935.60
2019-03-08T01:17:05.861Z,935.57
2019-03-08T01:18:05.759Z,935.61
2019-03-08T01:19:05.659Z,935.56
2019-03-08T01:20:05.561Z,935.57
2019-03-08T01:21:05.480Z,935.61
2019-03-08T01:22:05.363Z,935.53
2019-03-08T01:23:05.264Z,935.60
2019-03-08T01:24:05.164Z,935.62
2019-03-08T01:25:05.063Z,935.61
2019-03-08T01:26:04.976Z,935.56
2019-03-08T01:27:04.861Z,935.57
2019-03-08T01:28:04.764Z,935.52
2019-03-08T01:29:04.665Z,935.57
2019-03-08T01:30:04.573Z,935.59
2019-03-08T01:31:04.480Z,935.58
2019-03-08T01:32:05.544Z,935.61
2019-03-08T01:33:04.281Z,935.58
2019-03-08T01:34:04.163Z,935.60
2019-03-08T01:35:04.081Z,935.58
2019-03-08T01:36:03.981Z,935.57
2019-03-08T01:37:03.867Z,935.52
2019-03-08T01:38:03.767Z,935.56
2019-03-08T01:39:03.667Z,935.52
2019-03-08T01:40:03.564Z,935.52
2019-03-08T01:41:03.482Z,935.55
2019-03-08T01:42:03.372Z,935.56
2019-03-08T01:43:03.266Z,935.58
2019-03-08T01:44:03.171Z,935.55
2019-03-08T01:45:03.837Z,935.65
2019-03-08T01:46:02.985Z,935.67
2019-03-08T01:47:02.870Z,935.62
2019-03-08T01:48:02.774Z,935.66
2019-03-08T01:49:02.668Z,935.71
2019-03-08T01:50:02.575Z,935.78
2019-03-08T01:51:02.490Z,935.67
2019-03-08T01:52:02.370Z,935.66
2019-03-08T01:53:02.275Z,935.65
2019-03-08T01:54:02.188Z,935.61
2019-03-08T01:55:02.078Z,935.60
2019-03-08T01:56:01.988Z,935.57
2019-03-08T01:57:01.875Z,935.59
2019-03-08T01:58:01.773Z,935.56
2019-03-08T01:59:01.673Z,935.59
2019-03-08T02:00:01.573Z,935.55
2019-03-08T02:01:01.489Z,935.49
2019-03-08T02:02:01.374Z,935.53
2019-03-08T02:03:01.277Z,935.46
2019-03-08T02:04:01.175Z,935.47
2019-03-08T02:05:01.077Z,935.49
2019-03-08T02:06:00.994Z,935.53
2019-03-08T02:07:00.875Z,935.47
2019-03-08T02:08:00.775Z,935.45
2019-03-08T02:09:00.679Z,935.51
2019-03-08T02:10:00.686Z,935.58
2019-03-08T02:11:00.498Z,935.50
2019-03-08T02:12:00.378Z,935.54
2019-03-08T02:13:00.285Z,935.58
2019-03-08T02:14:00.182Z,935.52
2019-03-08T02:15:00.094Z,935.51
2019-03-08T02:15:59.997Z,935.55
2019-03-08T02:16:59.984Z,935.43
2019-03-08T02:17:59.781Z,935.50
2019-03-08T02:18:59.686Z,935.57
2019-03-08T02:19:59.593Z,935.61
2019-03-08T02:21:06.437Z,935.53
2019-03-08T02:21:59.383Z,935.55
2019-03-08T02:22:59.284Z,935.56
2019-03-08T02:23:59.195Z,935.52
2019-03-08T02:24:59.087Z,935.50
2019-03-08T02:25:59.007Z,935.50
2019-03-08T02:26:58.892Z,935.52
2019-03-08T02:27:58.805Z,935.37
2019-03-08T02:28:58.691Z,935.42
2019-03-08T02:29:58.592Z,935.44
2019-03-08T02:30:58.507Z,935.36
2019-03-08T02:31:58.398Z,935.37
2019-03-08T02:32:58.294Z,935.33
2019-03-08T02:33:58.195Z,935.40
2019-03-08T02:34:58.095Z,935.33
2019-03-08T02:35:58.011Z,935.39
2019-03-08T02:36:57.898Z,935.28
2019-03-08T02:37:57.795Z,935.30
2019-03-08T02:38:57.704Z,935.35
2019-03-08T02:39:57.597Z,935.25
2019-03-08T02:40:57.540Z,935.26
2019-03-08T02:41:57.401Z,935.25
2019-03-08T02:42:57.303Z,935.29
2019-03-08T02:43:57.202Z,935.24
2019-03-08T02:44:57.100Z,935.25
2019-03-08T02:45:57.019Z,935.18
2019-03-08T02:46:56.901Z,935.15
2019-03-08T02:47:56.807Z,935.21
2019-03-08T02:48:56.707Z,935.25
2019-03-08T02:49:56.602Z,935.26
2019-03-08T02:50:56.546Z,935.28
2019-03-08T02:51:56.435Z,935.27
2019-03-08T02:52:56.318Z,935.30
2019-03-08T02:53:56.206Z,935.26
2019-03-08T02:54:56.110Z,935.28
2019-03-08T02:55:56.033Z,935.28
2019-03-08T02:56:55.910Z,935.25
2019-03-08T02:57:55.810Z,935.22
2019-03-08T02:58:55.709Z,935.27
2019-03-08T02:59:55.611Z,935.32
2019-03-08T03:00:55.512Z,935.28
2019-03-08T03:01:55.431Z,935.29
2019-03-08T03:02:55.310Z,935.28
2019-03-08T03:03:55.216Z,935.19
2019-03-08T03:04:55.116Z,935.32
2019-03-08T03:05:55.017Z,935.27
2019-03-08T03:06:55.140Z,935.27
2019-03-08T03:07:54.820Z,935.37
2019-03-08T03:08:54.719Z,935.37
2019-03-08T03:09:54.617Z,935.34
2019-03-08T03:10:54.521Z,935.32
2019-03-08T03:11:54.433Z,935.36
2019-03-08T03:12:54.319Z,935.33
2019-03-08T03:13:54.327Z,935.36
2019-03-08T03:14:54.119Z,935.35
2019-03-08T03:15:54.031Z,935.43
2019-03-08T03:16:53.937Z,935.40
2019-03-08T03:17:53.824Z,935.32
2019-03-08T03:18:53.722Z,935.35
2019-03-08T03:19:53.622Z,935.41
2019-03-08T03:20:53.625Z,935.45
2019-03-08T03:21:53.442Z,935.42
2019-03-08T03:22:53.324Z,935.38
2019-03-08T03:23:53.228Z,935.38
2019-03-08T03:24:53.126Z,935.36
2019-03-08T03:25:53.029Z,935.42
2019-03-08T03:26:52.947Z,935.45
2019-03-08T03:27:52.929Z,935.43
2019-03-08T03:28:52.732Z,935.40
2019-03-08T03:29:52.629Z,935.36
2019-03-08T03:30:52.537Z,935.39
2019-03-08T03:31:52.453Z,935.37
2019-03-08T03:32:52.345Z,935.38
2019-03-08T03:33:52.235Z,935.44
2019-03-08T03:34:52.243Z,935.42
2019-03-08T03:35:52.040Z,935.51
2019-03-08T03:36:51.955Z,935.50
2019-03-08T03:37:51.834Z,935.45
2019-03-08T03:38:51.737Z,935.45
2019-03-08T03:39:51.635Z,935.43
2019-03-08T03:40:51.557Z,935.50
2019-03-08T03:41:51.557Z,935.38
2019-03-08T03:42:51.337Z,935.60
2019-03-08T03:43:51.241Z,935.51
2019-03-08T03:44:51.143Z,935.39
2019-03-08T03:45:51.037Z,935.52
2019-03-08T03:46:50.955Z,935.59
2019-03-08T03:47:50.842Z,935.52
2019-03-08T03:48:50.842Z,935.62
2019-03-08T03:49:50.644Z,935.64
2019-03-08T03:50:50.542Z,935.62
2019-03-08T03:51:50.461Z,935.70
2019-03-08T03:52:50.346Z,935.64
2019-03-08T03:53:50.247Z,935.71
2019-03-08T03:54:50.149Z,935.79
2019-03-08T03:55:50.145Z,935.72
2019-03-08T03:56:49.971Z,935.78
2019-03-08T03:57:49.847Z,935.66
2019-03-08T03:58:49.749Z,935.73
2019-03-08T03:59:49.651Z,935.74
2019-03-08T04:00:49.552Z,935.68
2019-03-08T04:01:49.465Z,935.77
2019-03-08T04:02:49.465Z,935.73
2019-03-08T04:03:49.256Z,935.55
2019-03-08T04:04:49.157Z,935.72
2019-03-08T04:05:49.058Z,935.66
2019-03-08T04:06:48.971Z,935.74
2019-03-08T04:07:48.854Z,935.66
2019-03-08T04:08:48.755Z,935.68
2019-03-08T04:09:48.657Z,935.77
2019-03-08T04:10:48.562Z,935.72
2019-03-08T04:11:48.494Z,935.72
2019-03-08T04:12:48.362Z,935.63
2019-03-08T04:13:48.258Z,935.79
2019-03-08T04:14:48.162Z,935.81
2019-03-08T04:15:48.059Z,935.82
2019-03-08T04:16:47.978Z,935.81
2019-03-08T04:17:47.863Z,935.80
2019-03-08T04:18:47.762Z,935.74
2019-03-08T04:19:47.665Z,935.79
2019-03-08T04:20:47.569Z,935.93
2019-03-08T04:21:47.485Z,935.83
2019-03-08T04:22:47.366Z,935.74
2019-03-08T04:23:47.270Z,935.74
2019-03-08T04:24:47.172Z,935.75
2019-03-08T04:25:47.070Z,935.87
2019-03-08T04:26:46.998Z,935.89
2019-03-08T04:27:46.871Z,935.87
2019-03-08T04:28:46.779Z,935.78
2019-03-08T04:29:46.673Z,935.95
2019-03-08T04:30:46.573Z,935.75
2019-03-08T04:31:46.491Z,935.80
2019-03-08T04:32:46.374Z,935.86
2019-03-08T04:33:46.277Z,935.97
2019-03-08T04:34:46.176Z,936.12
2019-03-08T04:35:46.081Z,936.01
2019-03-08T04:36:45.999Z,935.91
2019-03-08T04:37:45.880Z,935.90
2019-03-08T04:38:45.779Z,935.89
2019-03-08T04:39:45.680Z,935.80
2019-03-08T04:40:45.584Z,935.86
2019-03-08T04:41:45.489Z,935.89
2019-03-08T04:42:45.399Z,935.92
2019-03-08T04:43:45.285Z,935.95
2019-03-08T04:44:45.185Z,935.93
2019-03-08T04:45:45.082Z,935.88
2019-03-08T04:46:45.004Z,935.98
2019-03-08T04:47:44.903Z,935.91
2019-03-08T04:48:44.790Z,935.93
2019-03-08T04:49:44.686Z,936.00
2019-03-08T04:50:44.594Z,936.11
2019-03-08T04:51:44.497Z,936.05
2019-03-08T04:52:44.407Z,936.00
2019-03-08T04:53:44.292Z,936.05
2019-03-08T04:54:44.193Z,935.94
2019-03-08T04:55:44.096Z,936.00
2019-03-08T04:56:43.995Z,936.00
2019-03-08T04:57:43.922Z,936.10
2019-03-08T04:58:43.797Z,936.04
2019-03-08T04:59:43.712Z,936.07
2019-03-08T05:00:43.597Z,935.96
2019-03-08T05:01:43.499Z,936.12
2019-03-08T05:02:43.415Z,936.06
2019-03-08T05:03:43.300Z,936.04
2019-03-08T05:04:43.203Z,936.10
2019-03-08T05:05:43.101Z,935.84
2019-03-08T05:06:43.003Z,936.00
2019-03-08T05:07:42.919Z,936.00
2019-03-08T05:08:42.803Z,936.06
2019-03-08T05:09:42.703Z,936.03
2019-03-08T05:10:42.605Z,936.09
2019-03-08T05:11:42.510Z,936.08
2019-03-08T05:12:42.424Z,936.13
2019-03-08T05:13:42.309Z,936.12
2019-03-08T05:14:42.208Z,936.19
2019-03-08T05:15:42.114Z,936.06
2019-03-08T05:16:42.012Z,936.20
2019-03-08T05:17:41.925Z,936.03
2019-03-08T05:18:41.810Z,936.00
2019-03-08T05:19:41.711Z,936.17
2019-03-08T05:20:41.613Z,936.22
2019-03-08T05:21:41.511Z,936.04
2019-03-08T05:22:41.434Z,936.17
2019-03-08T05:23:41.317Z,936.14
2019-03-08T05:24:41.218Z,936.16
2019-03-08T05:25:41.221Z,936.11
2019-03-08T05:26:41.016Z,936.21
2019-03-08T05:27:40.938Z,936.15
2019-03-08T05:28:40.819Z,936.15
2019-03-08T05:29:40.719Z,936.26
2019-03-08T05:30:40.620Z,936.23
2019-03-08T05:31:40.523Z,936.25
2019-03-08T05:32:40.547Z,936.18
2019-03-08T05:33:40.321Z,936.14
2019-03-08T05:34:40.225Z,936.33
2019-03-08T05:35:40.124Z,936.00
2019-03-08T05:36:40.024Z,936.13
2019-03-08T05:37:39.943Z,936.26
2019-03-08T05:38:39.826Z,936.15
2019-03-08T05:39:39.724Z,936.22
2019-03-08T05:40:39.630Z,936.29
2019-03-08T05:41:39.533Z,936.18
2019-03-08T05:42:39.445Z,936.23
2019-03-08T05:43:39.331Z,936.19
2019-03-08T05:44:39.232Z,936.10
2019-03-08T05:45:39.131Z,936.23
2019-03-08T05:46:39.141Z,936.14
2019-03-08T05:47:38.958Z,936.12
2019-03-08T05:48:38.834Z,936.14
2019-03-08T05:49:38.733Z,936.24
2019-03-08T05:50:38.638Z,936.26
2019-03-08T05:51:38.536Z,936.26
2019-03-08T05:52:38.455Z,936.27
2019-03-08T05:53:38.457Z,936.20
2019-03-08T05:54:38.237Z,936.27
2019-03-08T05:55:38.138Z,936.29
2019-03-08T05:56:38.041Z,936.38
2019-03-08T05:57:37.956Z,936.39
2019-03-08T05:58:37.842Z,936.30
2019-03-08T05:59:37.744Z,936.49
2019-03-08T06:00:37.744Z,936.46
2019-03-08T06:01:37.545Z,936.45
2019-03-08T06:02:37.459Z,936.45
2019-03-08T06:03:37.346Z,936.47
2019-03-08T06:04:37.245Z,936.52
2019-03-08T06:05:37.147Z,936.43
2019-03-08T06:06:37.045Z,936.56
2019-03-08T06:07:37.066Z,936.58
2019-03-08T06:08:36.849Z,936.52
2019-03-08T06:09:36.747Z,936.58
2019-03-08T06:10:36.651Z,936.60
2019-03-08T06:11:36.552Z,936.49
2019-03-08T06:12:36.468Z,936.52
2019-03-08T06:13:36.349Z,936.53
2019-03-08T06:14:36.369Z,936.61
2019-03-08T06:15:36.155Z,936.57
2019-03-08T06:16:36.057Z,936.60
2019-03-08T06:17:35.970Z,936.62
2019-03-08T06:18:35.856Z,936.62
2019-03-08T06:19:35.758Z,936.69
2019-03-08T06:20:35.655Z,936.76
2019-03-08T06:21:35.658Z,936.69
2019-03-08T06:22:35.474Z,936.67
2019-03-08T06:23:35.359Z,936.77
2019-03-08T06:24:35.258Z,936.71
2019-03-08T06:25:35.155Z,936.80
2019-03-08T06:26:35.058Z,936.86
2019-03-08T06:27:34.960Z,936.84
2019-03-08T06:28:34.981Z,936.86
2019-03-08T06:29:34.773Z,936.89
2019-03-08T06:30:34.663Z,936.94
2019-03-08T06:31:34.570Z,936.95
2019-03-08T06:32:34.463Z,936.93
2019-03-08T06:33:34.378Z,937.00
2019-03-08T06:34:34.266Z,937.04
2019-03-08T06:35:34.272Z,937.09
2019-03-08T06:36:34.067Z,937.15
2019-03-08T06:37:33.971Z,937.10
2019-03-08T06:38:33.884Z,937.19
2019-03-08T06:39:33.770Z,937.24
2019-03-08T06:40:33.668Z,937.22
2019-03-08T06:41:33.695Z,937.07
2019-03-08T06:42:33.471Z,937.23
2019-03-08T06:43:33.385Z,937.20
2019-03-08T06:44:33.272Z,937.16
2019-03-08T06:45:33.173Z,937.25
2019-03-08T06:46:33.072Z,937.26
2019-03-08T06:47:32.977Z,937.26
2019-03-08T06:48:32.893Z,937.01
2019-03-08T06:49:32.885Z,937.21
2019-03-08T06:50:32.681Z,937.28
2019-03-08T06:51:32.578Z,937.25
2019-03-08T06:52:32.483Z,937.22
2019-03-08T06:53:32.397Z,937.21
2019-03-08T06:54:32.282Z,937.19
2019-03-08T06:55:32.182Z,937.25
2019-03-08T06:56:32.085Z,937.24
2019-03-08T06:57:31.984Z,937.24
2019-03-08T06:58:31.903Z,937.33
2019-03-08T06:59:31.787Z,937.27
2019-03-08T07:00:31.690Z,937.47
2019-03-08T07:01:31.598Z,937.38
2019-03-08T07:02:31.495Z,937.35
2019-03-08T07:03:31.409Z,937.32
2019-03-08T07:04:31.295Z,937.29
2019-03-08T07:05:31.195Z,937.44
2019-03-08T07:06:31.098Z,937.37
2019-03-08T07:07:30.999Z,937.33
2019-03-08T07:08:30.914Z,937.31
2019-03-08T07:09:30.798Z,937.39
2019-03-08T07:10:30.701Z,937.40
2019-03-08T07:11:30.605Z,937.35
2019-03-08T07:12:30.506Z,937.38
2019-03-08T07:13:30.419Z,937.41
2019-03-08T07:14:30.308Z,937.40
2019-03-08T07:15:30.211Z,937.45
2019-03-08T07:16:30.108Z,937.45
2019-03-08T07:17:30.009Z,937.44
2019-03-08T07:18:29.929Z,937.43
2019-03-08T07:19:29.817Z,937.44
2019-03-08T07:20:29.716Z,937.57
2019-03-08T07:21:29.615Z,937.44
2019-03-08T07:22:29.519Z,937.48
2019-03-08T07:23:29.436Z,937.39
2019-03-08T07:24:29.322Z,937.46
2019-03-08T07:25:29.221Z,937.48
2019-03-08T07:26:29.125Z,937.63
2019-03-08T07:27:29.024Z,937.63
2019-03-08T07:28:28.945Z,937.67
2019-03-08T07:29:28.833Z,937.59
2019-03-08T07:30:28.725Z,937.63
2019-03-08T07:31:28.629Z,937.77
2019-03-08T07:32:28.531Z,937.83
2019-03-08T07:33:28.434Z,937.77
2019-03-08T07:34:28.351Z,937.84
2019-03-08T07:35:28.240Z,937.87
2019-03-08T07:36:28.137Z,937.88
2019-03-08T07:37:28.040Z,937.96
2019-03-08T07:38:27.942Z,937.97
2019-03-08T07:39:27.865Z,937.90
2019-03-08T07:40:27.741Z,937.91
2019-03-08T07:41:28.956Z,937.98
2019-03-08T07:42:27.543Z,937.99
2019-03-08T07:43:27.447Z,938.03
2019-03-08T07:44:27.368Z,938.09
2019-03-08T07:45:27.248Z,938.06
2019-03-08T07:46:27.149Z,938.12
2019-03-08T07:47:27.055Z,938.09
2019-03-08T07:48:26.952Z,938.13
2019-03-08T07:49:26.868Z,938.14
2019-03-08T07:50:26.754Z,938.23
2019-03-08T07:51:26.662Z,938.15
2019-03-08T07:52:26.556Z,938.18
2019-03-08T07:53:26.457Z,938.11
2019-03-08T07:54:26.375Z,938.17
2019-03-08T07:55:26.260Z,938.20
2019-03-08T07:56:26.163Z,938.24
2019-03-08T07:57:26.060Z,938.20
2019-03-08T07:58:26.609Z,938.24
2019-03-08T07:59:25.881Z,938.27
2019-03-08T08:00:25.764Z,938.25
2019-03-08T08:01:25.666Z,938.32
2019-03-08T08:02:25.567Z,938.47
2019-03-08T08:03:25.476Z,938.38
2019-03-08T08:04:25.390Z,938.32
2019-03-08T08:05:25.273Z,938.38
2019-03-08T08:06:25.171Z,938.31
2019-03-08T08:07:25.076Z,938.28
2019-03-08T08:08:24.971Z,938.39
2019-03-08T08:09:24.893Z,938.42
2019-03-08T08:10:24.776Z,938.49
2019-03-08T08:11:24.680Z,938.37
2019-03-08T08:12:24.581Z,938.36
2019-03-08T08:13:24.478Z,938.46
2019-03-08T08:14:24.396Z,938.44
2019-03-08T08:15:24.282Z,938.48
2019-03-08T08:16:24.188Z,938.52
2019-03-08T08:17:24.080Z,938.51
2019-03-08T08:18:23.983Z,938.53
2019-03-08T08:19:23.924Z,938.60
2019-03-08T08:20:23.784Z,938.60
2019-03-08T08:21:23.687Z,938.67
2019-03-08T08:22:23.587Z,938.63
2019-03-08T08:23:23.496Z,938.64
2019-03-08T08:24:23.404Z,938.59
2019-03-08T08:25:23.287Z,938.68
2019-03-08T08:26:23.187Z,938.66
2019-03-08T08:27:23.090Z,938.75
2019-03-08T08:28:22.996Z,938.56
2019-03-08T08:29:22.908Z,938.66
2019-03-08T08:30:22.792Z,938.82
2019-03-08T08:31:22.721Z,938.77
2019-03-08T08:32:22.598Z,938.75
2019-03-08T08:33:22.494Z,938.89
2019-03-08T08:34:22.819Z,938.78
2019-03-08T08:35:22.306Z,938.93
2019-03-08T08:36:22.201Z,938.97
2019-03-08T08:37:22.099Z,938.94
2019-03-08T08:38:22.002Z,938.95
2019-03-08T08:39:21.907Z,939.08
2019-03-08T08:40:21.820Z,939.06
2019-03-08T08:41:21.809Z,938.96
2019-03-08T08:42:21.609Z,939.11
2019-03-08T08:43:21.506Z,939.09
2019-03-08T08:44:21.415Z,938.90
2019-03-08T08:45:21.326Z,939.05
2019-03-08T08:46:21.214Z,939.22
2019-03-08T08:47:21.115Z,939.30
2019-03-08T08:48:21.127Z,939.08
2019-03-08T08:49:20.917Z,939.18
2019-03-08T08:50:20.832Z,939.23
2019-03-08T08:51:20.717Z,939.29
2019-03-08T08:52:20.615Z,939.28
2019-03-08T08:53:20.520Z,939.25
2019-03-08T08:54:20.420Z,939.27
2019-03-08T08:55:20.440Z,939.25
2019-03-08T08:56:20.224Z,939.14
2019-03-08T08:57:20.126Z,939.18
2019-03-08T08:58:20.026Z,939.33
2019-03-08T08:59:19.924Z,939.26
2019-03-08T09:00:19.844Z,939.43
2019-03-08T09:01:19.728Z,939.44
2019-03-08T09:02:19.739Z,939.43
2019-03-08T09:03:19.532Z,939.46
2019-03-08T09:04:19.432Z,939.44
2019-03-08T09:05:19.364Z,939.49
2019-03-08T09:06:19.232Z,939.40
2019-03-08T09:07:19.138Z,939.58
2019-03-08T09:08:19.038Z,939.60
2019-03-08T09:09:19.044Z,939.61
2019-03-08T09:10:18.854Z,939.58
2019-03-08T09:11:18.738Z,939.59
2019-03-08T09:12:18.640Z,939.58
2019-03-08T09:13:18.541Z,939.54
2019-03-08T09:14:18.441Z,939.60
2019-03-08T09:15:18.361Z,939.73
2019-03-08T09:16:18.359Z,939.71
2019-03-08T09:17:18.147Z,939.62
2019-03-08T09:18:18.047Z,939.64
2019-03-08T09:19:17.974Z,939.67
2019-03-08T09:20:17.866Z,939.75
2019-03-08T09:21:17.751Z,939.65
2019-03-08T09:22:17.775Z,939.65
2019-03-08T09:23:17.553Z,939.70
2019-03-08T09:24:17.455Z,939.68
2019-03-08T09:25:17.378Z,939.70
2019-03-08T09:26:17.257Z,939.73
2019-03-08T09:27:17.157Z,939.67
2019-03-08T09:28:17.063Z,939.82
2019-03-08T09:29:17.765Z,939.75
2019-03-08T09:30:16.980Z,939.82
2019-03-08T09:31:16.763Z,939.79
2019-03-08T09:32:16.666Z,939.68
2019-03-08T09:33:16.567Z,939.91
2019-03-08T09:34:16.467Z,939.84
2019-03-08T09:35:16.390Z,939.92
2019-03-08T09:36:16.271Z,939.90
2019-03-08T09:37:16.274Z,939.98
2019-03-08T09:38:17.488Z,939.86
2019-03-08T09:39:15.972Z,939.97
2019-03-08T09:40:15.893Z,939.88
2019-03-08T09:41:15.773Z,939.98
2019-03-08T09:42:15.675Z,940.03
2019-03-08T09:43:15.576Z,940.01
2019-03-08T09:44:15.486Z,940.02
2019-03-08T09:45:15.399Z,940.15
2019-03-08T09:46:15.281Z,940.13
2019-03-08T09:47:15.184Z,940.19
2019-03-08T09:48:15.081Z,940.15
2019-03-08T09:49:14.985Z,940.22
2019-03-08T09:50:14.886Z,940.27
2019-03-08T09:51:14.804Z,940.18
2019-03-08T09:52:14.698Z,940.20
2019-03-08T09:53:14.604Z,940.32
2019-03-08T09:54:14.487Z,940.26
2019-03-08T09:55:14.389Z,940.35
2019-03-08T09:56:14.306Z,940.31
2019-03-08T09:57:14.189Z,940.32
2019-03-08T09:58:14.089Z,940.36
2019-03-08T09:59:13.991Z,940.27
2019-03-08T10:00:13.895Z,940.40
2019-03-08T10:01:16.818Z,940.46
2019-03-08T10:02:13.695Z,940.44
2019-03-08T10:03:13.598Z,940.52
2019-03-08T10:04:13.496Z,940.45
2019-03-08T10:05:13.403Z,940.35
2019-03-08T10:06:13.321Z,940.49
2019-03-08T10:07:13.202Z,940.45
2019-03-08T10:08:13.104Z,940.47
2019-03-08T10:09:13.002Z,940.46
2019-03-08T10:10:12.905Z,940.43
2019-03-08T10:11:12.827Z,940.47
2019-03-08T10:12:12.705Z,940.51
2019-03-08T10:13:12.605Z,940.40
2019-03-08T10:14:12.505Z,940.44
2019-03-08T10:15:12.414Z,940.48
2019-03-08T10:16:12.328Z,940.40
2019-03-08T10:17:12.211Z,940.44
2019-03-08T10:18:12.109Z,940.51
2019-03-08T10:19:12.014Z,940.54
2019-03-08T10:20:11.915Z,940.54
2019-03-08T10:21:11.830Z,940.52
2019-03-08T10:22:11.714Z,940.54
2019-03-08T10:23:19.678Z,940.57
2019-03-08T10:24:11.516Z,940.54
2019-03-08T10:25:11.419Z,940.58
2019-03-08T10:26:11.338Z,940.61
2019-03-08T10:27:11.220Z,940.63
2019-03-08T10:28:11.122Z,940.63
2019-03-08T10:29:11.034Z,940.63
2019-03-08T10:30:10.926Z,940.64
2019-03-08T10:31:10.841Z,940.66
2019-03-08T10:32:10.726Z,940.78
2019-03-08T10:33:10.629Z,940.68
2019-03-08T10:34:10.528Z,940.66
2019-03-08T10:35:10.440Z,940.68
2019-03-08T10:36:10.350Z,940.77
2019-03-08T10:37:10.233Z,940.74
2019-03-08T10:38:10.137Z,940.73
2019-03-08T10:39:10.035Z,940.76
2019-03-08T10:40:09.943Z,940.73
2019-03-08T10:41:09.855Z,940.73
2019-03-08T10:42:09.760Z,940.78
2019-03-08T10:43:09.642Z,940.81
2019-03-08T10:44:11.383Z,940.81
2019-03-08T10:45:09.449Z,940.83
2019-03-08T10:46:15.483Z,940.81
2019-03-08T10:47:09.248Z,940.84
2019-03-08T10:48:09.150Z,940.79
2019-03-08T10:49:09.058Z,940.73
2019-03-08T10:50:08.953Z,940.86
2019-03-08T10:51:08.876Z,940.85
2019-03-08T10:52:17.148Z,940.84
2019-03-08T10:53:08.658Z,940.91
2019-03-08T10:54:08.562Z,940.89
2019-03-08T10:55:08.465Z,940.88
2019-03-08T10:56:08.383Z,940.89
2019-03-08T10:57:08.265Z,940.86
2019-03-08T10:58:08.167Z,940.93
2019-03-08T10:59:08.072Z,940.86
2019-03-08T11:00:08.081Z,940.95
2019-03-08T11:01:07.888Z,940.94
2019-03-08T11:02:07.774Z,941.00
2019-03-08T11:03:07.677Z,940.89
2019-03-08T11:04:07.580Z,940.99
2019-03-08T11:05:07.483Z,941.10
2019-03-08T11:06:07.398Z,941.00
2019-03-08T11:07:07.287Z,941.07
2019-03-08T11:08:08.990Z,941.01
2019-03-08T11:09:07.086Z,940.99
2019-03-08T11:10:06.989Z,941.02
2019-03-08T11:11:06.935Z,940.97
2019-03-08T11:12:06.794Z,941.08
2019-03-08T11:13:06.694Z,941.08
2019-03-08T11:14:06.702Z,941.09
2019-03-08T11:15:06.501Z,941.06
2019-03-08T11:16:06.405Z,941.06
2019-03-08T11:17:06.317Z,941.15
2019-03-08T11:18:06.205Z,941.17
2019-03-08T11:19:08.968Z,941.12
2019-03-08T11:20:06.006Z,941.18
2019-03-08T11:21:06.029Z,941.28
2019-03-08T11:22:05.830Z,941.27
2019-03-08T11:23:05.713Z,941.19
2019-03-08T11:24:05.615Z,941.08
2019-03-08T11:25:08.599Z,941.12
2019-03-08T11:26:05.417Z,941.18
2019-03-08T11:27:05.471Z,941.01
2019-03-08T11:28:05.322Z,941.09
2019-03-08T11:29:05.124Z,941.14
2019-03-08T11:30:05.026Z,941.19
2019-03-08T11:31:04.939Z,941.08
2019-03-08T11:32:04.845Z,941.16
2019-03-08T11:33:04.733Z,941.12
2019-03-08T11:34:04.635Z,941.04
2019-03-08T11:35:04.637Z,941.14
2019-03-08T11:36:04.438Z,941.13
2019-03-08T11:37:04.369Z,941.14
2019-03-08T11:38:04.243Z,941.22
2019-03-08T11:39:04.143Z,941.20
2019-03-08T11:40:04.048Z,941.18
2019-03-08T11:41:03.949Z,941.20
2019-03-08T11:42:05.215Z,941.17
2019-03-08T11:43:03.755Z,941.17
2019-03-08T11:44:03.659Z,941.17
2019-03-08T11:45:03.557Z,941.17
2019-03-08T11:46:03.464Z,941.31
2019-03-08T11:47:03.378Z,941.20
2019-03-08T11:48:03.268Z,941.24
2019-03-08T11:49:03.167Z,941.27
2019-03-08T11:50:03.068Z,941.27
2019-03-08T11:51:02.968Z,941.19
2019-03-08T11:52:02.892Z,941.30
2019-03-08T11:53:02.774Z,941.28
2019-03-08T11:54:02.680Z,941.23
2019-03-08T11:55:02.580Z,941.25
2019-03-08T11:56:02.588Z,941.31
2019-03-08T11:57:02.408Z,941.25
2019-03-08T11:58:02.289Z,941.28
2019-03-08T11:59:02.189Z,941.28
2019-03-08T12:00:02.104Z,941.24
2019-03-08T12:01:02.002Z,941.31
2019-03-08T12:02:01.913Z,941.32
2019-03-08T12:03:01.900Z,941.31
2019-03-08T12:04:01.703Z,941.25
2019-03-08T12:05:01.604Z,941.36
2019-03-08T12:06:01.508Z,941.28
2019-03-08T12:07:01.429Z,941.30
2019-03-08T12:08:01.317Z,941.33
2019-03-08T12:09:01.217Z,941.38
2019-03-08T12:10:01.239Z,941.53
2019-03-08T12:11:01.019Z,941.49
2019-03-08T12:12:00.942Z,941.49
2019-03-08T12:13:00.826Z,941.39
2019-03-08T12:14:00.728Z,941.39
2019-03-08T12:15:00.631Z,941.37
2019-03-08T12:16:00.666Z,941.46
2019-03-08T12:17:00.457Z,941.53
2019-03-08T12:18:00.341Z,941.30
2019-03-08T12:19:00.245Z,941.33
2019-03-08T12:20:00.224Z,941.40
2019-03-08T12:21:00.051Z,941.35
2019-03-08T12:21:59.972Z,941.39
2019-03-08T12:22:59.858Z,941.39
2019-03-08T12:23:59.762Z,941.38
2019-03-08T12:25:01.187Z,941.38
2019-03-08T12:25:59.569Z,941.31
2019-03-08T12:26:59.491Z,941.40